sensor_id;sensor_type;location;lat;lon;timestamp;pressure;altitude;pressure_sealevel;temperature;humidity
17649;BME280;8943;51.110;-4.158;2023-03-02T00:01:50;102190.00;;;12.61;46.89
17649;BME280;8943;51.110;-4.158;2023-03-02T00:04:21;102191.22;;;12.55;46.80
17649;BME280;8943;51.110;-4.158;2023-03-02T00:06:50;102185.19;;;12.52;46.84
17649;BME280;8943;51.110;-4.158;2023-03-02T00:09:21;102187.09;;;12.50;46.67
17649;BME280;8943;51.110;-4.158;2023-03-02T00:11:51;102185.38;;;12.49;46.69
17649;BME280;8943;51.110;-4.158;2023-03-02T00:14:19;102188.03;;;12.49;46.59
17649;BME280;8943;51.110;-4.158;2023-03-02T00:16:47;102193.66;;;12.44;46.88
17649;BME280;8943;51.110;-4.158;2023-03-02T00:19:15;102182.38;;;12.39;46.68
17649;BME280;8943;51.110;-4.158;2023-03-02T00:21:43;102188.06;;;12.33;46.95
17649;BME280;8943;51.110;-4.158;2023-03-02T00:24:11;102173.34;;;12.26;46.97
17649;BME280;8943;51.110;-4.158;2023-03-02T00:26:41;102178.09;;;12.21;47.19
17649;BME280;8943;51.110;-4.158;2023-03-02T00:29:10;102175.84;;;12.13;47.19
17649;BME280;8943;51.110;-4.158;2023-03-02T00:31:38;102167.13;;;12.09;47.38
17649;BME280;8943;51.110;-4.158;2023-03-02T00:34:06;102169.22;;;12.04;47.12
17649;BME280;8943;51.110;-4.158;2023-03-02T00:36:34;102160.59;;;11.99;47.43
17649;BME280;8943;51.110;-4.158;2023-03-02T00:39:03;102147.59;;;11.93;47.76
17649;BME280;8943;51.110;-4.158;2023-03-02T00:41:31;102153.28;;;11.87;47.59
17649;BME280;8943;51.110;-4.158;2023-03-02T00:43:59;102159.88;;;11.80;47.67
17649;BME280;8943;51.110;-4.158;2023-03-02T00:46:29;102152.97;;;11.76;47.90
17649;BME280;8943;51.110;-4.158;2023-03-02T00:48:58;102159.25;;;11.75;47.81
17649;BME280;8943;51.110;-4.158;2023-03-02T00:51:26;102155.63;;;11.76;47.58
17649;BME280;8943;51.110;-4.158;2023-03-02T00:53:54;102161.78;;;11.78;47.88
17649;BME280;8943;51.110;-4.158;2023-03-02T00:56:22;102154.53;;;11.80;47.99
17649;BME280;8943;51.110;-4.158;2023-03-02T00:58:50;102161.47;;;11.84;47.75
17649;BME280;8943;51.110;-4.158;2023-03-02T01:01:18;102164.91;;;11.86;47.71
17649;BME280;8943;51.110;-4.158;2023-03-02T01:03:47;102157.69;;;11.88;47.45
17649;BME280;8943;51.110;-4.158;2023-03-02T01:06:16;102159.38;;;11.89;48.01
17649;BME280;8943;51.110;-4.158;2023-03-02T01:08:45;102154.84;;;11.91;47.94
17649;BME280;8943;51.110;-4.158;2023-03-02T01:11:14;102162.66;;;11.94;47.80
17649;BME280;8943;51.110;-4.158;2023-03-02T01:13:43;102159.03;;;11.95;47.97
17649;BME280;8943;51.110;-4.158;2023-03-02T01:16:11;102157.25;;;11.96;47.79
17649;BME280;8943;51.110;-4.158;2023-03-02T01:18:40;102165.94;;;11.99;48.02
17649;BME280;8943;51.110;-4.158;2023-03-02T01:21:11;102155.09;;;12.02;47.76
17649;BME280;8943;51.110;-4.158;2023-03-02T01:23:40;102154.94;;;12.05;48.06
17649;BME280;8943;51.110;-4.158;2023-03-02T01:26:08;102145.84;;;12.08;48.18
17649;BME280;8943;51.110;-4.158;2023-03-02T01:28:36;102143.09;;;12.09;47.54
17649;BME280;8943;51.110;-4.158;2023-03-02T01:31:04;102145.75;;;12.09;47.96
17649;BME280;8943;51.110;-4.158;2023-03-02T01:33:32;102143.03;;;12.11;47.75
17649;BME280;8943;51.110;-4.158;2023-03-02T01:36:00;102135.06;;;12.09;47.58
17649;BME280;8943;51.110;-4.158;2023-03-02T01:38:30;102130.69;;;12.08;47.81
17649;BME280;8943;51.110;-4.158;2023-03-02T01:40:58;102137.84;;;12.08;47.84
17649;BME280;8943;51.110;-4.158;2023-03-02T01:43:26;102132.59;;;12.06;48.15
17649;BME280;8943;51.110;-4.158;2023-03-02T01:45:56;102138.69;;;12.08;48.11
17649;BME280;8943;51.110;-4.158;2023-03-02T01:48:28;102124.47;;;12.08;47.80
17649;BME280;8943;51.110;-4.158;2023-03-02T01:50:59;102126.28;;;12.07;48.02
17649;BME280;8943;51.110;-4.158;2023-03-02T01:53:31;102130.78;;;12.07;48.03
17649;BME280;8943;51.110;-4.158;2023-03-02T01:56:03;102126.28;;;12.07;48.08
17649;BME280;8943;51.110;-4.158;2023-03-02T01:58:33;102131.66;;;12.07;48.17
17649;BME280;8943;51.110;-4.158;2023-03-02T02:01:03;102131.66;;;12.07;48.38
17649;BME280;8943;51.110;-4.158;2023-03-02T02:03:31;102124.59;;;12.06;48.03
17649;BME280;8943;51.110;-4.158;2023-03-02T02:06:07;102122.88;;;12.05;47.90
17649;BME280;8943;51.110;-4.158;2023-03-02T02:08:37;102118.38;;;12.06;48.22
17649;BME280;8943;51.110;-4.158;2023-03-02T02:11:05;102131.66;;;12.07;48.13
17649;BME280;8943;51.110;-4.158;2023-03-02T02:13:33;102124.59;;;12.06;48.21
17649;BME280;8943;51.110;-4.158;2023-03-02T02:16:01;102126.28;;;12.07;48.06
17649;BME280;8943;51.110;-4.158;2023-03-02T02:18:30;102106.75;;;12.07;48.21
17649;BME280;8943;51.110;-4.158;2023-03-02T02:20:59;102112.94;;;12.07;48.15
17649;BME280;8943;51.110;-4.158;2023-03-02T02:23:30;102104.91;;;12.07;47.97
17649;BME280;8943;51.110;-4.158;2023-03-02T02:26:09;102109.50;;;12.05;48.11
17649;BME280;8943;51.110;-4.158;2023-03-02T02:28:42;102110.44;;;12.04;47.93
17649;BME280;8943;51.110;-4.158;2023-03-02T02:31:16;102096.31;;;12.02;47.94
17649;BME280;8943;51.110;-4.158;2023-03-02T02:33:50;102103.38;;;12.03;48.28
17649;BME280;8943;51.110;-4.158;2023-03-02T02:36:23;102096.31;;;12.02;47.96
17649;BME280;8943;51.110;-4.158;2023-03-02T02:38:54;102087.34;;;12.03;48.20
17649;BME280;8943;51.110;-4.158;2023-03-02T02:41:26;102097.06;;;12.04;48.47
17649;BME280;8943;51.110;-4.158;2023-03-02T02:43:57;102093.53;;;12.04;48.24
17649;BME280;8943;51.110;-4.158;2023-03-02T02:46:25;102096.16;;;12.05;48.24
17649;BME280;8943;51.110;-4.158;2023-03-02T02:48:53;102104.16;;;12.05;48.37
17649;BME280;8943;51.110;-4.158;2023-03-02T02:51:25;102101.50;;;12.05;48.49
17649;BME280;8943;51.110;-4.158;2023-03-02T02:53:56;102094.41;;;12.04;48.29
17649;BME280;8943;51.110;-4.158;2023-03-02T02:56:29;102090.81;;;12.05;47.98
17649;BME280;8943;51.110;-4.158;2023-03-02T02:59:01;102095.19;;;12.06;48.28
17649;BME280;8943;51.110;-4.158;2023-03-02T03:01:32;102094.41;;;12.04;48.61
17649;BME280;8943;51.110;-4.158;2023-03-02T03:04:03;102088.13;;;12.05;48.26
17649;BME280;8943;51.110;-4.158;2023-03-02T03:06:33;102091.66;;;12.06;48.28
17649;BME280;8943;51.110;-4.158;2023-03-02T03:09:09;102095.25;;;12.05;48.58
17649;BME280;8943;51.110;-4.158;2023-03-02T03:11:40;102091.72;;;12.04;48.54
17649;BME280;8943;51.110;-4.158;2023-03-02T03:14:11;102098.03;;;12.03;48.19
17649;BME280;8943;51.110;-4.158;2023-03-02T03:16:42;102092.00;;;12.00;48.34
17649;BME280;8943;51.110;-4.158;2023-03-02T03:19:15;102085.78;;;11.99;48.58
17649;BME280;8943;51.110;-4.158;2023-03-02T03:21:48;102084.94;;;11.99;48.40
17649;BME280;8943;51.110;-4.158;2023-03-02T03:24:16;102079.59;;;11.99;48.41
17649;BME280;8943;51.110;-4.158;2023-03-02T03:26:46;102082.38;;;11.97;48.66
17649;BME280;8943;51.110;-4.158;2023-03-02T03:29:15;102074.50;;;11.94;48.18
17649;BME280;8943;51.110;-4.158;2023-03-02T03:31:44;102079.84;;;11.94;48.89
17649;BME280;8943;51.110;-4.158;2023-03-02T03:34:12;102073.75;;;11.92;48.45
17649;BME280;8943;51.110;-4.158;2023-03-02T03:36:40;102072.03;;;11.91;48.79
17649;BME280;8943;51.110;-4.158;2023-03-02T03:39:10;102077.38;;;11.91;48.88
17649;BME280;8943;51.110;-4.158;2023-03-02T03:41:39;102079.25;;;11.89;48.71
17649;BME280;8943;51.110;-4.158;2023-03-02T03:44:09;102078.41;;;11.89;48.73
17649;BME280;8943;51.110;-4.158;2023-03-02T03:46:37;102072.38;;;11.85;48.70
17649;BME280;8943;51.110;-4.158;2023-03-02T03:49:05;102079.47;;;11.86;48.72
17649;BME280;8943;51.110;-4.158;2023-03-02T03:51:33;102083.16;;;11.83;48.58
17649;BME280;8943;51.110;-4.158;2023-03-02T03:54:02;102079.75;;;11.80;48.84
17649;BME280;8943;51.110;-4.158;2023-03-02T03:56:35;102077.19;;;11.78;48.76
17649;BME280;8943;51.110;-4.158;2023-03-02T03:59:06;102075.63;;;11.74;48.82
17649;BME280;8943;51.110;-4.158;2023-03-02T04:01:37;102080.28;;;11.71;48.73
17649;BME280;8943;51.110;-4.158;2023-03-02T04:04:08;102088.38;;;11.69;49.18
17649;BME280;8943;51.110;-4.158;2023-03-02T04:06:36;102081.31;;;11.68;48.83
17649;BME280;8943;51.110;-4.158;2023-03-02T04:09:04;102070.78;;;11.65;48.92
17649;BME280;8943;51.110;-4.158;2023-03-02T04:11:34;102085.97;;;11.65;49.09
17649;BME280;8943;51.110;-4.158;2023-03-02T04:14:04;102074.59;;;11.61;49.24
17649;BME280;8943;51.110;-4.158;2023-03-02T04:16:34;102073.06;;;11.57;49.12
17649;BME280;8943;51.110;-4.158;2023-03-02T04:19:05;102073.06;;;11.57;49.04
17649;BME280;8943;51.110;-4.158;2023-03-02T04:21:35;102076.66;;;11.56;49.06
17649;BME280;8943;51.110;-4.158;2023-03-02T04:24:05;102077.69;;;11.53;49.20
17649;BME280;8943;51.110;-4.158;2023-03-02T04:26:33;102067.03;;;11.53;49.30
17649;BME280;8943;51.110;-4.158;2023-03-02T04:29:02;102077.69;;;11.53;49.22
17649;BME280;8943;51.110;-4.158;2023-03-02T04:31:30;102084.00;;;11.52;49.17
17649;BME280;8943;51.110;-4.158;2023-03-02T04:33:59;102078.72;;;11.51;49.46
17649;BME280;8943;51.110;-4.158;2023-03-02T04:36:32;102076.16;;;11.49;49.17
17649;BME280;8943;51.110;-4.158;2023-03-02T04:39:01;102077.84;;;11.50;49.32
17649;BME280;8943;51.110;-4.158;2023-03-02T04:41:30;102081.47;;;11.49;49.47
17649;BME280;8943;51.110;-4.158;2023-03-02T04:43:58;102076.03;;;11.51;49.37
17649;BME280;8943;51.110;-4.158;2023-03-02T04:46:26;102083.19;;;11.50;49.32
17649;BME280;8943;51.110;-4.158;2023-03-02T04:48:55;102072.53;;;11.50;49.44
17649;BME280;8943;51.110;-4.158;2023-03-02T04:51:25;102079.56;;;11.51;49.42
17649;BME280;8943;51.110;-4.158;2023-03-02T04:54:01;102079.56;;;11.51;49.37
17649;BME280;8943;51.110;-4.158;2023-03-02T04:56:30;102077.69;;;11.53;49.63
17649;BME280;8943;51.110;-4.158;2023-03-02T04:59:00;102080.28;;;11.55;49.40
17649;BME280;8943;51.110;-4.158;2023-03-02T05:01:28;102081.94;;;11.57;49.46
17649;BME280;8943;51.110;-4.158;2023-03-02T05:03:56;102081.94;;;11.57;49.29
17649;BME280;8943;51.110;-4.158;2023-03-02T05:06:28;102082.84;;;11.56;49.29
17649;BME280;8943;51.110;-4.158;2023-03-02T05:08:59;102089.09;;;11.57;49.30
17649;BME280;8943;51.110;-4.158;2023-03-02T05:11:27;102086.47;;;11.55;49.43
17649;BME280;8943;51.110;-4.158;2023-03-02T05:13:57;102088.28;;;11.55;49.54
17649;BME280;8943;51.110;-4.158;2023-03-02T05:16:26;102091.91;;;11.54;49.14
17649;BME280;8943;51.110;-4.158;2023-03-02T05:18:59;102097.16;;;11.55;49.03
17649;BME280;8943;51.110;-4.158;2023-03-02T05:21:27;102098.88;;;11.56;49.24
17649;BME280;8943;51.110;-4.158;2023-03-02T05:23:56;102092.59;;;11.57;49.32
17649;BME280;8943;51.110;-4.158;2023-03-02T05:26:26;102093.53;;;11.56;49.27
17649;BME280;8943;51.110;-4.158;2023-03-02T05:28:54;102095.34;;;11.56;49.07
17649;BME280;8943;51.110;-4.158;2023-03-02T05:31:27;102095.53;;;11.53;49.34
17649;BME280;8943;51.110;-4.158;2023-03-02T05:33:56;102100.94;;;11.51;49.07
17649;BME280;8943;51.110;-4.158;2023-03-02T05:36:25;102104.41;;;11.53;49.19
17649;BME280;8943;51.110;-4.158;2023-03-02T05:38:53;102096.47;;;11.52;49.37
17649;BME280;8943;51.110;-4.158;2023-03-02T05:41:21;102101.03;;;11.50;49.18
17649;BME280;8943;51.110;-4.158;2023-03-02T05:43:50;102108.19;;;11.49;49.09
17649;BME280;8943;51.110;-4.158;2023-03-02T05:46:19;102101.13;;;11.48;49.58
17649;BME280;8943;51.110;-4.158;2023-03-02T05:48:47;102102.75;;;11.51;49.35
17649;BME280;8943;51.110;-4.158;2023-03-02T05:51:15;102102.84;;;11.49;49.04
17649;BME280;8943;51.110;-4.158;2023-03-02T05:53:43;102102.84;;;11.49;49.25
17649;BME280;8943;51.110;-4.158;2023-03-02T05:56:11;102101.81;;;11.52;49.04
17649;BME280;8943;51.110;-4.158;2023-03-02T05:58:40;102099.22;;;11.50;49.10
17649;BME280;8943;51.110;-4.158;2023-03-02T06:01:10;102097.66;;;11.46;48.93
17649;BME280;8943;51.110;-4.158;2023-03-02T06:03:41;102095.94;;;11.45;49.55
17649;BME280;8943;51.110;-4.158;2023-03-02T06:06:09;102098.00;;;11.40;49.28
17649;BME280;8943;51.110;-4.158;2023-03-02T06:08:40;102097.16;;;11.40;49.28
17649;BME280;8943;51.110;-4.158;2023-03-02T06:11:08;102095.69;;;11.34;49.11
17649;BME280;8943;51.110;-4.158;2023-03-02T06:13:37;102099.19;;;11.34;49.09
17649;BME280;8943;51.110;-4.158;2023-03-02T06:16:05;102102.72;;;11.35;49.22
17649;BME280;8943;51.110;-4.158;2023-03-02T06:18:36;102104.44;;;11.36;49.20
17649;BME280;8943;51.110;-4.158;2023-03-02T06:21:07;102101.72;;;11.38;49.26
17649;BME280;8943;51.110;-4.158;2023-03-02T06:23:35;102108.69;;;11.40;49.27
17649;BME280;8943;51.110;-4.158;2023-03-02T06:26:06;102105.91;;;11.42;49.06
17649;BME280;8943;51.110;-4.158;2023-03-02T06:28:35;102105.75;;;11.45;48.85
17649;BME280;8943;51.110;-4.158;2023-03-02T06:31:17;102114.63;;;11.45;49.36
17649;BME280;8943;51.110;-4.158;2023-03-02T06:33:46;102117.28;;;11.45;49.09
17649;BME280;8943;51.110;-4.158;2023-03-02T06:36:14;102113.75;;;11.45;49.16
17649;BME280;8943;51.110;-4.158;2023-03-02T06:38:43;102117.28;;;11.45;49.02
17649;BME280;8943;51.110;-4.158;2023-03-02T06:41:11;102118.16;;;11.46;48.92
17649;BME280;8943;51.110;-4.158;2023-03-02T06:43:39;102118.25;;;11.44;48.88
17649;BME280;8943;51.110;-4.158;2023-03-02T06:46:07;102116.44;;;11.45;48.90
17649;BME280;8943;51.110;-4.158;2023-03-02T06:48:35;102108.44;;;11.45;49.04
17649;BME280;8943;51.110;-4.158;2023-03-02T06:51:05;102122.56;;;11.47;48.85
17649;BME280;8943;51.110;-4.158;2023-03-02T06:53:33;102127.81;;;11.48;48.83
17649;BME280;8943;51.110;-4.158;2023-03-02T06:56:02;102121.63;;;11.48;48.52
17649;BME280;8943;51.110;-4.158;2023-03-02T06:58:30;102129.53;;;11.49;48.75
17649;BME280;8943;51.110;-4.158;2023-03-02T07:00:58;102125.03;;;11.50;48.67
17649;BME280;8943;51.110;-4.158;2023-03-02T07:03:26;102125.91;;;11.50;48.70
17649;BME280;8943;51.110;-4.158;2023-03-02T07:05:54;102129.38;;;11.52;48.43
17649;BME280;8943;51.110;-4.158;2023-03-02T07:08:23;102130.22;;;11.53;48.79
17649;BME280;8943;51.110;-4.158;2023-03-02T07:10:51;102121.28;;;11.54;48.85
17649;BME280;8943;51.110;-4.158;2023-03-02T07:13:19;102125.56;;;11.56;48.62
17649;BME280;8943;51.110;-4.158;2023-03-02T07:15:47;102125.50;;;11.58;48.71
17649;BME280;8943;51.110;-4.158;2023-03-02T07:18:15;102124.44;;;11.60;48.78
17649;BME280;8943;51.110;-4.158;2023-03-02T07:20:44;102133.31;;;11.61;48.68
17649;BME280;8943;51.110;-4.158;2023-03-02T07:23:12;102137.63;;;11.64;48.71
17649;BME280;8943;51.110;-4.158;2023-03-02T07:25:41;102134.03;;;11.65;48.67
17649;BME280;8943;51.110;-4.158;2023-03-02T07:28:09;102132.16;;;11.67;48.60
17649;BME280;8943;51.110;-4.158;2023-03-02T07:30:37;102139.19;;;11.68;48.41
17649;BME280;8943;51.110;-4.158;2023-03-02T07:33:05;102139.91;;;11.71;48.58
17649;BME280;8943;51.110;-4.158;2023-03-02T07:35:33;102139.72;;;11.74;48.46
17649;BME280;8943;51.110;-4.158;2023-03-02T07:38:01;102136.94;;;11.76;48.36
17649;BME280;8943;51.110;-4.158;2023-03-02T07:40:29;102139.47;;;11.79;48.46
17649;BME280;8943;51.110;-4.158;2023-03-02T07:42:59;102140.25;;;11.81;48.40
17649;BME280;8943;51.110;-4.158;2023-03-02T07:45:27;102146.38;;;11.83;48.49
17649;BME280;8943;51.110;-4.158;2023-03-02T07:47:55;102148.97;;;11.84;48.54
17649;BME280;8943;51.110;-4.158;2023-03-02T07:50:23;102141.75;;;11.87;48.66
17649;BME280;8943;51.110;-4.158;2023-03-02T07:52:52;102139.84;;;11.89;48.59
17649;BME280;8943;51.110;-4.158;2023-03-02T07:55:20;102140.59;;;11.91;48.16
17649;BME280;8943;51.110;-4.158;2023-03-02T07:57:48;102145.69;;;11.95;48.46
17649;BME280;8943;51.110;-4.158;2023-03-02T08:00:19;102149.03;;;11.99;48.26
17649;BME280;8943;51.110;-4.158;2023-03-02T08:02:47;102150.50;;;12.04;48.27
17649;BME280;8943;51.110;-4.158;2023-03-02T08:05:15;102156.53;;;12.08;48.10
17649;BME280;8943;51.110;-4.158;2023-03-02T08:07:45;102157.25;;;12.11;47.93
17649;BME280;8943;51.110;-4.158;2023-03-02T08:10:14;102158.69;;;12.17;48.27
17649;BME280;8943;51.110;-4.158;2023-03-02T08:12:42;102151.44;;;12.19;47.88
17649;BME280;8943;51.110;-4.158;2023-03-02T08:15:11;102159.03;;;12.27;47.83
17649;BME280;8943;51.110;-4.158;2023-03-02T08:17:40;102165.13;;;12.29;47.33
17649;BME280;8943;51.110;-4.158;2023-03-02T08:20:09;102152.47;;;12.32;47.46
17649;BME280;8943;51.110;-4.158;2023-03-02T08:22:37;102165.56;;;12.37;47.35
17649;BME280;8943;51.110;-4.158;2023-03-02T08:25:06;102158.13;;;12.42;47.13
17649;BME280;8943;51.110;-4.158;2023-03-02T08:27:34;102166.84;;;12.46;46.92
17649;BME280;8943;51.110;-4.158;2023-03-02T08:30:03;102161.41;;;12.47;46.90
17649;BME280;8943;51.110;-4.158;2023-03-02T08:32:31;102161.03;;;12.53;46.56
17649;BME280;8943;51.110;-4.158;2023-03-02T08:35:02;102162.59;;;12.57;46.64
17649;BME280;8943;51.110;-4.158;2023-03-02T08:37:30;102167.75;;;12.60;46.31
17649;BME280;8943;51.110;-4.158;2023-03-02T08:39:58;102170.06;;;12.67;45.99
17649;BME280;8943;51.110;-4.158;2023-03-02T08:42:26;102165.47;;;12.69;45.76
17649;BME280;8943;51.110;-4.158;2023-03-02T08:44:54;102175.31;;;12.68;45.67
17649;BME280;8943;51.110;-4.158;2023-03-02T08:47:23;102171.72;;;12.69;45.54
17649;BME280;8943;51.110;-4.158;2023-03-02T08:49:51;102170.06;;;12.67;45.27
17649;BME280;8943;51.110;-4.158;2023-03-02T08:52:20;102172.91;;;12.63;45.09
17649;BME280;8943;51.110;-4.158;2023-03-02T08:54:48;102180.75;;;12.67;45.06
17649;BME280;8943;51.110;-4.158;2023-03-02T08:57:16;102181.34;;;12.72;44.99
17649;BME280;8943;51.110;-4.158;2023-03-02T08:59:46;102184.63;;;12.77;44.59
17649;BME280;8943;51.110;-4.158;2023-03-02T09:02:14;102181.50;;;12.84;44.76
17649;BME280;8943;51.110;-4.158;2023-03-02T09:04:43;102182.16;;;12.88;44.30
17649;BME280;8943;51.110;-4.158;2023-03-02T09:07:11;102183.69;;;12.92;44.18
17649;BME280;8943;51.110;-4.158;2023-03-02T09:09:44;102189.34;;;13.02;44.27
17649;BME280;8943;51.110;-4.158;2023-03-02T09:12:12;102196.84;;;13.11;43.89
17649;BME280;8943;51.110;-4.158;2023-03-02T09:14:40;102190.34;;;13.15;43.79
17649;BME280;8943;51.110;-4.158;2023-03-02T09:17:08;102190.84;;;13.22;43.43
17649;BME280;8943;51.110;-4.158;2023-03-02T09:19:38;102193.06;;;13.29;43.65
17649;BME280;8943;51.110;-4.158;2023-03-02T09:22:10;102197.00;;;13.38;43.58
17649;BME280;8943;51.110;-4.158;2023-03-02T09:24:38;102197.47;;;13.45;43.16
17649;BME280;8943;51.110;-4.158;2023-03-02T09:27:07;102201.78;;;13.47;43.12
17649;BME280;8943;51.110;-4.158;2023-03-02T09:29:35;102197.28;;;13.48;42.70
17649;BME280;8943;51.110;-4.158;2023-03-02T09:32:04;102196.22;;;13.50;42.79
17649;BME280;8943;51.110;-4.158;2023-03-02T09:34:32;102204.09;;;13.53;42.78
17649;BME280;8943;51.110;-4.158;2023-03-02T09:37:00;102199.88;;;13.63;42.50
17649;BME280;8943;51.110;-4.158;2023-03-02T09:39:29;102201.13;;;13.72;42.46
17649;BME280;8943;51.110;-4.158;2023-03-02T09:42:12;102193.53;;;13.79;42.22
17649;BME280;8943;51.110;-4.158;2023-03-02T09:45:15;102205.28;;;13.90;42.06
17649;BME280;8943;51.110;-4.158;2023-03-02T09:47:54;102203.28;;;13.94;41.82
17649;BME280;8943;51.110;-4.158;2023-03-02T09:50:27;102193.41;;;13.95;41.69
17649;BME280;8943;51.110;-4.158;2023-03-02T09:53:16;102188.34;;;13.90;41.52
17649;BME280;8943;51.110;-4.158;2023-03-02T09:55:54;102195.63;;;13.88;41.52
17649;BME280;8943;51.110;-4.158;2023-03-02T09:58:29;102196.59;;;13.87;41.44
17649;BME280;8943;51.110;-4.158;2023-03-02T10:01:00;102198.03;;;13.93;41.23
17649;BME280;8943;51.110;-4.158;2023-03-02T10:03:33;102196.19;;;13.93;41.47
17649;BME280;8943;51.110;-4.158;2023-03-02T10:06:05;102194.28;;;13.95;40.89
17649;BME280;8943;51.110;-4.158;2023-03-02T10:08:34;102199.44;;;13.98;41.13
17649;BME280;8943;51.110;-4.158;2023-03-02T10:11:09;102201.28;;;13.98;40.50
17649;BME280;8943;51.110;-4.158;2023-03-02T10:13:45;102200.41;;;13.97;40.60
17649;BME280;8943;51.110;-4.158;2023-03-02T10:16:25;102187.19;;;13.94;40.68
17649;BME280;8943;51.110;-4.158;2023-03-02T10:19:02;102200.88;;;14.04;40.98
17649;BME280;8943;51.110;-4.158;2023-03-02T10:21:37;102197.47;;;14.14;40.91
17649;BME280;8943;51.110;-4.158;2023-03-02T10:24:15;102204.84;;;14.25;40.63
17649;BME280;8943;51.110;-4.158;2023-03-02T10:26:46;102203.09;;;14.24;40.24
17649;BME280;8943;51.110;-4.158;2023-03-02T10:29:29;102202.78;;;14.16;39.98
17649;BME280;8943;51.110;-4.158;2023-03-02T10:32:04;102195.72;;;14.01;39.94
17649;BME280;8943;51.110;-4.158;2023-03-02T10:34:37;102198.13;;;13.91;39.93
17649;BME280;8943;51.110;-4.158;2023-03-02T10:37:11;102205.50;;;13.87;40.12
17649;BME280;8943;51.110;-4.158;2023-03-02T10:39:40;102199.66;;;13.81;40.29
17649;BME280;8943;51.110;-4.158;2023-03-02T10:42:13;102195.53;;;13.75;40.22
17649;BME280;8943;51.110;-4.158;2023-03-02T10:44:47;102203.69;;;13.74;40.24
17649;BME280;8943;51.110;-4.158;2023-03-02T10:47:20;102215.72;;;13.81;40.41
17649;BME280;8943;51.110;-4.158;2023-03-02T10:49:48;102208.44;;;13.97;40.30
17649;BME280;8943;51.110;-4.158;2023-03-02T10:52:18;102205.53;;;14.14;40.44
17649;BME280;8943;51.110;-4.158;2023-03-02T10:54:47;102220.31;;;14.34;40.36
17649;BME280;8943;51.110;-4.158;2023-03-02T10:57:36;102217.63;;;14.49;39.95
17649;BME280;8943;51.110;-4.158;2023-03-02T11:00:16;102215.72;;;14.51;39.72
17649;BME280;8943;51.110;-4.158;2023-03-02T11:02:49;102208.91;;;14.45;39.29
17649;BME280;8943;51.110;-4.158;2023-03-02T11:05:26;102218.72;;;14.32;39.08
17649;BME280;8943;51.110;-4.158;2023-03-02T11:07:56;102218.25;;;14.25;39.11
17649;BME280;8943;51.110;-4.158;2023-03-02T11:10:26;102214.91;;;14.22;39.46
17649;BME280;8943;51.110;-4.158;2023-03-02T11:12:58;102214.06;;;14.21;39.18
17649;BME280;8943;51.110;-4.158;2023-03-02T11:15:34;102217.59;;;14.22;38.85
17649;BME280;8943;51.110;-4.158;2023-03-02T11:18:24;102208.41;;;14.26;39.25
17649;BME280;8943;51.110;-4.158;2023-03-02T11:20:56;102214.50;;;14.28;39.21
17649;BME280;8943;51.110;-4.158;2023-03-02T11:23:31;102223.66;;;14.38;39.60
17649;BME280;8943;51.110;-4.158;2023-03-02T11:26:06;102228.72;;;14.57;39.67
17649;BME280;8943;51.110;-4.158;2023-03-02T11:28:44;102222.56;;;14.82;39.43
17649;BME280;8943;51.110;-4.158;2023-03-02T11:31:22;102218.63;;;15.00;39.27
17649;BME280;8943;51.110;-4.158;2023-03-02T11:34:03;102221.34;;;15.13;38.46
17649;BME280;8943;51.110;-4.158;2023-03-02T11:36:49;102224.34;;;15.08;38.28
17649;BME280;8943;51.110;-4.158;2023-03-02T11:39:28;102217.78;;;15.00;38.17
17649;BME280;8943;51.110;-4.158;2023-03-02T11:41:58;102219.50;;;15.01;38.67
17649;BME280;8943;51.110;-4.158;2023-03-02T11:44:26;102222.53;;;15.09;38.53
17649;BME280;8943;51.110;-4.158;2023-03-02T11:46:59;102219.53;;;15.13;38.09
17649;BME280;8943;51.110;-4.158;2023-03-02T11:49:36;102218.75;;;15.11;38.21
17649;BME280;8943;51.110;-4.158;2023-03-02T11:52:05;102222.06;;;15.02;37.89
17649;BME280;8943;51.110;-4.158;2023-03-02T11:54:44;102219.44;;;14.88;37.61
17649;BME280;8943;51.110;-4.158;2023-03-02T11:57:20;102222.00;;;14.77;37.73
17649;BME280;8943;51.110;-4.158;2023-03-02T11:59:50;102222.22;;;14.74;38.06
17649;BME280;8943;51.110;-4.158;2023-03-02T12:02:21;102221.16;;;14.76;38.20
17649;BME280;8943;51.110;-4.158;2023-03-02T12:05:00;102224.69;;;14.77;37.88
17649;BME280;8943;51.110;-4.158;2023-03-02T12:07:29;102210.72;;;14.72;38.03
17649;BME280;8943;51.110;-4.158;2023-03-02T12:10:00;102213.00;;;14.78;38.23
17649;BME280;8943;51.110;-4.158;2023-03-02T12:12:39;102221.19;;;14.89;38.31
17649;BME280;8943;51.110;-4.158;2023-03-02T12:15:33;102219.81;;;14.96;38.21
17649;BME280;8943;51.110;-4.158;2023-03-02T12:18:26;102218.31;;;15.05;38.14
17649;BME280;8943;51.110;-4.158;2023-03-02T12:21:00;102208.63;;;15.02;37.71
17649;BME280;8943;51.110;-4.158;2023-03-02T12:23:30;102205.72;;;14.92;37.56
17649;BME280;8943;51.110;-4.158;2023-03-02T12:26:06;102204.63;;;14.82;37.30
17649;BME280;8943;51.110;-4.158;2023-03-02T12:28:36;102204.81;;;14.66;37.41
17649;BME280;8943;51.110;-4.158;2023-03-02T12:31:08;102213.34;;;14.59;37.97
17649;BME280;8943;51.110;-4.158;2023-03-02T12:33:44;102205.22;;;14.60;37.93
17649;BME280;8943;51.110;-4.158;2023-03-02T12:36:16;102204.19;;;14.76;38.40
17649;BME280;8943;51.110;-4.158;2023-03-02T12:38:55;102206.03;;;14.88;37.87
17649;BME280;8943;51.110;-4.158;2023-03-02T12:41:39;102205.31;;;14.99;37.69
17649;BME280;8943;51.110;-4.158;2023-03-02T12:44:26;102204.44;;;14.98;37.41
17649;BME280;8943;51.110;-4.158;2023-03-02T12:46:58;102207.00;;;14.87;37.16
17649;BME280;8943;51.110;-4.158;2023-03-02T12:49:43;102206.88;;;14.76;37.05
17649;BME280;8943;51.110;-4.158;2023-03-02T12:52:21;102198.28;;;14.71;37.50
17649;BME280;8943;51.110;-4.158;2023-03-02T12:55:00;102201.06;;;14.69;37.51
17649;BME280;8943;51.110;-4.158;2023-03-02T12:57:29;102206.75;;;14.64;37.47
17649;BME280;8943;51.110;-4.158;2023-03-02T12:59:59;102207.81;;;14.62;37.38
17649;BME280;8943;51.110;-4.158;2023-03-02T13:02:29;102195.47;;;14.59;37.45
17649;BME280;8943;51.110;-4.158;2023-03-02T13:05:00;102198.47;;;14.55;37.61
17649;BME280;8943;51.110;-4.158;2023-03-02T13:07:34;102192.25;;;14.54;37.29
17649;BME280;8943;51.110;-4.158;2023-03-02T13:10:11;102192.63;;;14.48;37.22